This is the latest recevied weather packets stored in our database for station/object N8WJW. If no packets are shown the sender has not sent any weather packets the latest 10 day(s).
| Time | Temp. | Humidity | Pressure | Rain* | Wind** | Luminosity | Snow |
|---|---|---|---|---|---|---|---|
| 1777398537 | 20° C | 75% | 1013 hPa | 0 mm | - | 241 W/m² | - |
| 1777398233 | 20° C | 76% | 1012.7 hPa | 0 mm | - | 394 W/m² | - |
| 1777397931 | 21.11° C | 74% | 1012.9 hPa | 0 mm | - | 470 W/m² | - |
| 1777397626 | 20° C | 78% | 1012.9 hPa | 0 mm | - | 291 W/m² | - |
| 1777397323 | 20° C | 76% | 1013 hPa | 0 mm | - | 281 W/m² | - |
| 1777397019 | 19.44° C | 79% | 1012.9 hPa | 0 mm | - | 218 W/m² | - |
| 1777396716 | 18.89° C | 80% | 1013 hPa | 0 mm | - | 224 W/m² | - |
| 1777396412 | 18.89° C | 82% | 1012.8 hPa | 0 mm | - | 197 W/m² | - |
| 1777396109 | 18.89° C | 81% | 1012.8 hPa | 0 mm | - | 191 W/m² | - |
| 1777395805 | 19.44° C | 79% | 1013 hPa | 0 mm | - | 458 W/m² | - |
| 1777395501 | 18.89° C | 81% | 1012.9 hPa | 0 mm | - | 800 W/m² | - |
| 1777395198 | 18.89° C | 83% | 1012.8 hPa | 0 mm | - | 212 W/m² | - |
| 1777394895 | 17.78° C | 85% | 1012.9 hPa | 0 mm | - | 241 W/m² | - |
| 1777394591 | 17.22° C | 85% | 1012.8 hPa | 0 mm | - | 132 W/m² | - |
| 1777394288 | 17.22° C | 85% | 1013 hPa | 0 mm | - | 144 W/m² | - |
| 1777393984 | 17.22° C | 85% | 1013 hPa | 0 mm | - | 192 W/m² | - |
| 1777393683 | 16.67° C | 86% | 1013.1 hPa | 0 mm | - | 263 W/m² | - |
| 1777393379 | 16.67° C | 86% | 1013.2 hPa | 0 mm | - | 103 W/m² | - |
| 1777393075 | 16.67° C | 86% | 1013.2 hPa | 0 mm | - | 147 W/m² | - |
| 1777392771 | 16.67° C | 85% | 1012.9 hPa | 0 mm | - | 189 W/m² | - |
| 1777392467 | 16.67° C | 85% | 1013.2 hPa | 0 mm | - | 227 W/m² | - |
| 1777392163 | 16.67° C | 84% | 1013 hPa | 0 mm | - | 265 W/m² | - |
| 1777391859 | 17.22° C | 84% | 1013.2 hPa | 0 mm | - | 390 W/m² | - |
| 1777391554 | 16.67° C | 85% | 1012.9 hPa | 0 mm | - | 365 W/m² | - |
| 1777391250 | 16.67° C | 85% | 1013 hPa | 0 mm | - | 283 W/m² | - |
* Rain latest hour (hover to see other rain measurements)
** Current wind speed in m/s (hover to see current wind gust speed)